sensor_id;sensor_type;location;lat;lon;timestamp;P1;durP1;ratioP1;P2;durP2;ratioP2
70970;SDS011;58632;51.718;19.446;2023-04-24T00:00:14;26.60;;;18.10;;
70970;SDS011;58632;51.718;19.446;2023-04-24T00:03:00;24.20;;;18.50;;
70970;SDS011;58632;51.718;19.446;2023-04-24T00:05:26;22.70;;;16.30;;
70970;SDS011;58632;51.718;19.446;2023-04-24T00:07:55;21.60;;;16.80;;
70970;SDS011;58632;51.718;19.446;2023-04-24T00:10:23;21.20;;;17.00;;
70970;SDS011;58632;51.718;19.446;2023-04-24T00:12:49;20.40;;;16.00;;
70970;SDS011;58632;51.718;19.446;2023-04-24T00:15:14;23.00;;;17.00;;
70970;SDS011;58632;51.718;19.446;2023-04-24T00:17:40;23.00;;;17.10;;
70970;SDS011;58632;51.718;19.446;2023-04-24T00:20:08;24.40;;;16.00;;
70970;SDS011;58632;51.718;19.446;2023-04-24T00:22:35;26.70;;;18.30;;
70970;SDS011;58632;51.718;19.446;2023-04-24T00:25:00;45.00;;;24.20;;
70970;SDS011;58632;51.718;19.446;2023-04-24T00:27:26;40.50;;;22.20;;
70970;SDS011;58632;51.718;19.446;2023-04-24T00:29:52;32.80;;;20.10;;
70970;SDS011;58632;51.718;19.446;2023-04-24T00:32:17;30.70;;;20.00;;
70970;SDS011;58632;51.718;19.446;2023-04-24T00:34:43;36.40;;;20.60;;
70970;SDS011;58632;51.718;19.446;2023-04-24T00:37:08;47.40;;;23.80;;
70970;SDS011;58632;51.718;19.446;2023-04-24T00:39:34;48.40;;;23.40;;
70970;SDS011;58632;51.718;19.446;2023-04-24T00:41:59;44.90;;;22.10;;
70970;SDS011;58632;51.718;19.446;2023-04-24T00:46:52;37.00;;;20.70;;
70970;SDS011;58632;51.718;19.446;2023-04-24T00:49:20;44.20;;;22.40;;
70970;SDS011;58632;51.718;19.446;2023-04-24T00:54:12;41.10;;;22.70;;
70970;SDS011;58632;51.718;19.446;2023-04-24T00:56:39;42.40;;;22.10;;
70970;SDS011;58632;51.718;19.446;2023-04-24T00:59:06;42.10;;;22.50;;
70970;SDS011;58632;51.718;19.446;2023-04-24T01:01:31;55.60;;;23.60;;
70970;SDS011;58632;51.718;19.446;2023-04-24T01:03:59;40.30;;;21.70;;
70970;SDS011;58632;51.718;19.446;2023-04-24T01:06:27;33.80;;;20.00;;
70970;SDS011;58632;51.718;19.446;2023-04-24T01:08:53;35.30;;;19.80;;
70970;SDS011;58632;51.718;19.446;2023-04-24T01:11:21;39.90;;;20.70;;
70970;SDS011;58632;51.718;19.446;2023-04-24T01:13:47;35.50;;;20.40;;
70970;SDS011;58632;51.718;19.446;2023-04-24T01:16:16;40.30;;;19.40;;
70970;SDS011;58632;51.718;19.446;2023-04-24T01:18:43;36.90;;;19.70;;
70970;SDS011;58632;51.718;19.446;2023-04-24T01:21:09;36.50;;;19.10;;
70970;SDS011;58632;51.718;19.446;2023-04-24T01:23:38;35.30;;;19.20;;
70970;SDS011;58632;51.718;19.446;2023-04-24T01:26:03;30.20;;;18.00;;
70970;SDS011;58632;51.718;19.446;2023-04-24T01:28:29;33.60;;;18.20;;
70970;SDS011;58632;51.718;19.446;2023-04-24T01:30:55;28.50;;;17.00;;
70970;SDS011;58632;51.718;19.446;2023-04-24T01:33:21;34.00;;;17.60;;
70970;SDS011;58632;51.718;19.446;2023-04-24T01:35:47;30.30;;;17.20;;
70970;SDS011;58632;51.718;19.446;2023-04-24T01:38:14;26.80;;;17.00;;
70970;SDS011;58632;51.718;19.446;2023-04-24T01:40:40;30.40;;;17.20;;
70970;SDS011;58632;51.718;19.446;2023-04-24T01:43:07;23.50;;;16.40;;
70970;SDS011;58632;51.718;19.446;2023-04-24T01:45:33;21.80;;;15.70;;
70970;SDS011;58632;51.718;19.446;2023-04-24T01:47:58;23.20;;;16.00;;
70970;SDS011;58632;51.718;19.446;2023-04-24T01:50:25;23.50;;;15.70;;
70970;SDS011;58632;51.718;19.446;2023-04-24T01:52:51;23.20;;;15.80;;
70970;SDS011;58632;51.718;19.446;2023-04-24T01:55:19;23.00;;;15.60;;
70970;SDS011;58632;51.718;19.446;2023-04-24T01:57:44;20.50;;;15.60;;
70970;SDS011;58632;51.718;19.446;2023-04-24T02:00:10;21.80;;;15.80;;
70970;SDS011;58632;51.718;19.446;2023-04-24T02:02:37;22.60;;;15.40;;
70970;SDS011;58632;51.718;19.446;2023-04-24T02:05:05;22.50;;;15.10;;
70970;SDS011;58632;51.718;19.446;2023-04-24T02:07:31;23.20;;;14.60;;
70970;SDS011;58632;51.718;19.446;2023-04-24T02:09:57;17.10;;;14.40;;
70970;SDS011;58632;51.718;19.446;2023-04-24T02:12:25;17.10;;;14.50;;
70970;SDS011;58632;51.718;19.446;2023-04-24T02:14:51;23.30;;;15.40;;
70970;SDS011;58632;51.718;19.446;2023-04-24T02:17:17;19.30;;;14.90;;
70970;SDS011;58632;51.718;19.446;2023-04-24T02:19:44;23.30;;;16.40;;
70970;SDS011;58632;51.718;19.446;2023-04-24T02:22:10;18.80;;;15.10;;
70970;SDS011;58632;51.718;19.446;2023-04-24T02:24:36;19.80;;;14.50;;
70970;SDS011;58632;51.718;19.446;2023-04-24T02:27:02;19.10;;;14.30;;
70970;SDS011;58632;51.718;19.446;2023-04-24T02:29:28;21.80;;;15.50;;
70970;SDS011;58632;51.718;19.446;2023-04-24T02:31:53;19.80;;;14.10;;
70970;SDS011;58632;51.718;19.446;2023-04-24T02:34:19;19.00;;;14.60;;
70970;SDS011;58632;51.718;19.446;2023-04-24T02:36:45;17.70;;;13.10;;
70970;SDS011;58632;51.718;19.446;2023-04-24T02:39:13;18.40;;;14.10;;
70970;SDS011;58632;51.718;19.446;2023-04-24T02:41:39;19.20;;;13.40;;
70970;SDS011;58632;51.718;19.446;2023-04-24T02:44:07;19.80;;;14.80;;
70970;SDS011;58632;51.718;19.446;2023-04-24T02:46:32;19.80;;;14.10;;
70970;SDS011;58632;51.718;19.446;2023-04-24T02:49:00;16.60;;;12.50;;
70970;SDS011;58632;51.718;19.446;2023-04-24T02:51:26;18.00;;;14.00;;
70970;SDS011;58632;51.718;19.446;2023-04-24T02:53:52;20.70;;;15.10;;
70970;SDS011;58632;51.718;19.446;2023-04-24T02:56:17;22.70;;;15.50;;
70970;SDS011;58632;51.718;19.446;2023-04-24T02:58:43;19.10;;;15.60;;
70970;SDS011;58632;51.718;19.446;2023-04-24T03:01:08;20.00;;;15.20;;
70970;SDS011;58632;51.718;19.446;2023-04-24T03:03:37;18.10;;;14.80;;
70970;SDS011;58632;51.718;19.446;2023-04-24T03:06:03;18.90;;;13.80;;
70970;SDS011;58632;51.718;19.446;2023-04-24T03:08:31;18.20;;;13.30;;
70970;SDS011;58632;51.718;19.446;2023-04-24T03:10:57;18.40;;;14.80;;
70970;SDS011;58632;51.718;19.446;2023-04-24T03:13:22;18.60;;;13.90;;
70970;SDS011;58632;51.718;19.446;2023-04-24T03:15:51;17.40;;;14.00;;
70970;SDS011;58632;51.718;19.446;2023-04-24T03:18:16;19.10;;;13.80;;
70970;SDS011;58632;51.718;19.446;2023-04-24T03:20:44;16.30;;;14.40;;
70970;SDS011;58632;51.718;19.446;2023-04-24T03:23:13;18.70;;;15.00;;
70970;SDS011;58632;51.718;19.446;2023-04-24T03:25:39;20.20;;;15.30;;
70970;SDS011;58632;51.718;19.446;2023-04-24T03:28:04;17.50;;;13.60;;
70970;SDS011;58632;51.718;19.446;2023-04-24T03:30:30;20.90;;;14.40;;
70970;SDS011;58632;51.718;19.446;2023-04-24T03:32:55;18.80;;;14.20;;
70970;SDS011;58632;51.718;19.446;2023-04-24T03:35:21;19.80;;;14.10;;
70970;SDS011;58632;51.718;19.446;2023-04-24T03:37:47;21.30;;;14.10;;
70970;SDS011;58632;51.718;19.446;2023-04-24T03:40:12;16.30;;;13.60;;
70970;SDS011;58632;51.718;19.446;2023-04-24T03:42:38;20.60;;;14.20;;
70970;SDS011;58632;51.718;19.446;2023-04-24T03:45:04;18.40;;;14.80;;
70970;SDS011;58632;51.718;19.446;2023-04-24T03:47:30;21.30;;;14.90;;
70970;SDS011;58632;51.718;19.446;2023-04-24T03:49:56;22.50;;;14.20;;
70970;SDS011;58632;51.718;19.446;2023-04-24T03:52:21;21.60;;;13.90;;
70970;SDS011;58632;51.718;19.446;2023-04-24T03:54:47;17.30;;;13.50;;
70970;SDS011;58632;51.718;19.446;2023-04-24T03:57:12;18.90;;;14.80;;
70970;SDS011;58632;51.718;19.446;2023-04-24T03:59:38;18.20;;;14.50;;
70970;SDS011;58632;51.718;19.446;2023-04-24T04:02:03;19.70;;;14.60;;
70970;SDS011;58632;51.718;19.446;2023-04-24T04:04:29;18.80;;;14.70;;
70970;SDS011;58632;51.718;19.446;2023-04-24T04:06:55;16.90;;;14.60;;
70970;SDS011;58632;51.718;19.446;2023-04-24T04:09:21;17.00;;;13.20;;
70970;SDS011;58632;51.718;19.446;2023-04-24T04:11:46;19.50;;;15.00;;
70970;SDS011;58632;51.718;19.446;2023-04-24T04:14:14;20.70;;;14.60;;
70970;SDS011;58632;51.718;19.446;2023-04-24T04:16:40;22.90;;;15.00;;
70970;SDS011;58632;51.718;19.446;2023-04-24T04:19:05;19.10;;;15.40;;
70970;SDS011;58632;51.718;19.446;2023-04-24T04:21:31;33.10;;;14.80;;
70970;SDS011;58632;51.718;19.446;2023-04-24T04:23:57;28.00;;;14.90;;
70970;SDS011;58632;51.718;19.446;2023-04-24T04:26:22;30.00;;;14.30;;
70970;SDS011;58632;51.718;19.446;2023-04-24T04:28:51;23.40;;;14.60;;
70970;SDS011;58632;51.718;19.446;2023-04-24T04:31:16;29.00;;;15.40;;
70970;SDS011;58632;51.718;19.446;2023-04-24T04:33:42;22.00;;;14.50;;
70970;SDS011;58632;51.718;19.446;2023-04-24T04:36:07;23.10;;;14.10;;
70970;SDS011;58632;51.718;19.446;2023-04-24T04:38:35;26.10;;;14.50;;
70970;SDS011;58632;51.718;19.446;2023-04-24T04:41:02;21.50;;;15.10;;
70970;SDS011;58632;51.718;19.446;2023-04-24T04:43:28;23.20;;;14.60;;
70970;SDS011;58632;51.718;19.446;2023-04-24T04:45:53;22.50;;;14.80;;
70970;SDS011;58632;51.718;19.446;2023-04-24T04:48:21;23.30;;;16.00;;
70970;SDS011;58632;51.718;19.446;2023-04-24T04:50:47;28.30;;;14.80;;
70970;SDS011;58632;51.718;19.446;2023-04-24T04:53:12;21.60;;;13.10;;
70970;SDS011;58632;51.718;19.446;2023-04-24T04:55:38;23.00;;;12.00;;
70970;SDS011;58632;51.718;19.446;2023-04-24T04:58:04;14.50;;;9.50;;
70970;SDS011;58632;51.718;19.446;2023-04-24T05:00:30;16.20;;;9.30;;
70970;SDS011;58632;51.718;19.446;2023-04-24T05:03:00;12.70;;;8.30;;
70970;SDS011;58632;51.718;19.446;2023-04-24T05:05:26;13.40;;;9.00;;
70970;SDS011;58632;51.718;19.446;2023-04-24T05:07:51;17.60;;;9.10;;
70970;SDS011;58632;51.718;19.446;2023-04-24T05:10:17;13.30;;;8.20;;
70970;SDS011;58632;51.718;19.446;2023-04-24T05:12:42;10.50;;;7.70;;
70970;SDS011;58632;51.718;19.446;2023-04-24T05:15:08;15.90;;;8.10;;
70970;SDS011;58632;51.718;19.446;2023-04-24T05:17:34;8.40;;;6.90;;
70970;SDS011;58632;51.718;19.446;2023-04-24T05:19:59;15.30;;;7.60;;
70970;SDS011;58632;51.718;19.446;2023-04-24T05:22:25;9.40;;;7.30;;
70970;SDS011;58632;51.718;19.446;2023-04-24T05:24:51;12.40;;;7.00;;
70970;SDS011;58632;51.718;19.446;2023-04-24T05:27:17;20.00;;;7.20;;
70970;SDS011;58632;51.718;19.446;2023-04-24T05:29:43;9.10;;;6.60;;
70970;SDS011;58632;51.718;19.446;2023-04-24T05:32:08;9.60;;;6.70;;
70970;SDS011;58632;51.718;19.446;2023-04-24T05:34:34;11.10;;;7.10;;
70970;SDS011;58632;51.718;19.446;2023-04-24T05:37:00;12.50;;;6.40;;
70970;SDS011;58632;51.718;19.446;2023-04-24T05:39:28;8.50;;;6.10;;
70970;SDS011;58632;51.718;19.446;2023-04-24T05:41:54;13.90;;;7.00;;
70970;SDS011;58632;51.718;19.446;2023-04-24T05:44:23;11.80;;;6.20;;
70970;SDS011;58632;51.718;19.446;2023-04-24T05:46:48;8.20;;;5.80;;
70970;SDS011;58632;51.718;19.446;2023-04-24T05:49:13;8.60;;;5.50;;
70970;SDS011;58632;51.718;19.446;2023-04-24T05:51:39;11.10;;;6.00;;
70970;SDS011;58632;51.718;19.446;2023-04-24T05:54:05;14.00;;;5.80;;
70970;SDS011;58632;51.718;19.446;2023-04-24T05:56:30;8.80;;;5.20;;
70970;SDS011;58632;51.718;19.446;2023-04-24T05:58:56;10.60;;;5.40;;
70970;SDS011;58632;51.718;19.446;2023-04-24T06:01:21;10.10;;;5.20;;
70970;SDS011;58632;51.718;19.446;2023-04-24T06:03:48;11.70;;;4.80;;
70970;SDS011;58632;51.718;19.446;2023-04-24T06:06:13;6.60;;;4.80;;
70970;SDS011;58632;51.718;19.446;2023-04-24T06:08:41;10.90;;;4.60;;
70970;SDS011;58632;51.718;19.446;2023-04-24T06:11:09;8.00;;;4.70;;
70970;SDS011;58632;51.718;19.446;2023-04-24T06:13:34;9.40;;;4.90;;
70970;SDS011;58632;51.718;19.446;2023-04-24T06:16:00;8.50;;;4.80;;
70970;SDS011;58632;51.718;19.446;2023-04-24T06:18:25;8.00;;;5.00;;
70970;SDS011;58632;51.718;19.446;2023-04-24T06:20:51;8.00;;;4.60;;
70970;SDS011;58632;51.718;19.446;2023-04-24T06:23:17;9.20;;;4.50;;
70970;SDS011;58632;51.718;19.446;2023-04-24T06:25:42;8.30;;;3.70;;
70970;SDS011;58632;51.718;19.446;2023-04-24T06:28:08;7.80;;;4.80;;
70970;SDS011;58632;51.718;19.446;2023-04-24T06:30:33;6.20;;;4.30;;
70970;SDS011;58632;51.718;19.446;2023-04-24T06:32:59;10.50;;;4.70;;
70970;SDS011;58632;51.718;19.446;2023-04-24T06:35:24;11.40;;;4.50;;
70970;SDS011;58632;51.718;19.446;2023-04-24T06:37:52;6.50;;;4.00;;
70970;SDS011;58632;51.718;19.446;2023-04-24T06:40:21;11.70;;;4.90;;
70970;SDS011;58632;51.718;19.446;2023-04-24T06:45:13;7.90;;;4.40;;
70970;SDS011;58632;51.718;19.446;2023-04-24T06:47:38;6.00;;;3.80;;
70970;SDS011;58632;51.718;19.446;2023-04-24T06:50:04;6.90;;;4.20;;
70970;SDS011;58632;51.718;19.446;2023-04-24T06:55:01;22.70;;;4.40;;
70970;SDS011;58632;51.718;19.446;2023-04-24T06:57:30;15.70;;;4.30;;
70970;SDS011;58632;51.718;19.446;2023-04-24T06:59:56;6.80;;;3.90;;
70970;SDS011;58632;51.718;19.446;2023-04-24T07:02:22;8.50;;;4.00;;
70970;SDS011;58632;51.718;19.446;2023-04-24T07:04:48;5.80;;;3.50;;
70970;SDS011;58632;51.718;19.446;2023-04-24T07:07:13;9.00;;;4.00;;
70970;SDS011;58632;51.718;19.446;2023-04-24T07:09:39;5.30;;;3.80;;
70970;SDS011;58632;51.718;19.446;2023-04-24T07:12:07;7.60;;;3.80;;
70970;SDS011;58632;51.718;19.446;2023-04-24T07:14:36;5.50;;;3.60;;
70970;SDS011;58632;51.718;19.446;2023-04-24T07:17:03;9.30;;;3.90;;
70970;SDS011;58632;51.718;19.446;2023-04-24T07:19:30;11.50;;;4.10;;
70970;SDS011;58632;51.718;19.446;2023-04-24T07:21:59;7.30;;;3.90;;
70970;SDS011;58632;51.718;19.446;2023-04-24T07:24:25;23.70;;;4.60;;
70970;SDS011;58632;51.718;19.446;2023-04-24T07:26:51;6.10;;;3.70;;
70970;SDS011;58632;51.718;19.446;2023-04-24T07:29:18;8.20;;;3.80;;
70970;SDS011;58632;51.718;19.446;2023-04-24T07:34:09;5.40;;;3.80;;
70970;SDS011;58632;51.718;19.446;2023-04-24T07:36:35;6.50;;;4.20;;
70970;SDS011;58632;51.718;19.446;2023-04-24T07:39:03;20.70;;;5.60;;
70970;SDS011;58632;51.718;19.446;2023-04-24T07:41:29;13.30;;;4.80;;
70970;SDS011;58632;51.718;19.446;2023-04-24T07:43:55;10.90;;;4.40;;
70970;SDS011;58632;51.718;19.446;2023-04-24T07:46:21;4.60;;;3.60;;
70970;SDS011;58632;51.718;19.446;2023-04-24T07:48:46;6.80;;;3.80;;
70970;SDS011;58632;51.718;19.446;2023-04-24T07:51:13;6.90;;;3.90;;
70970;SDS011;58632;51.718;19.446;2023-04-24T07:53:39;7.70;;;3.60;;
70970;SDS011;58632;51.718;19.446;2023-04-24T07:56:05;8.20;;;3.90;;
70970;SDS011;58632;51.718;19.446;2023-04-24T07:58:31;13.10;;;3.80;;
70970;SDS011;58632;51.718;19.446;2023-04-24T08:00:59;7.00;;;3.80;;
70970;SDS011;58632;51.718;19.446;2023-04-24T08:03:24;8.00;;;4.20;;
70970;SDS011;58632;51.718;19.446;2023-04-24T08:05:50;7.50;;;3.80;;
70970;SDS011;58632;51.718;19.446;2023-04-24T08:08:16;6.40;;;3.40;;
70970;SDS011;58632;51.718;19.446;2023-04-24T08:10:42;6.40;;;3.50;;
70970;SDS011;58632;51.718;19.446;2023-04-24T08:13:08;10.60;;;3.80;;
70970;SDS011;58632;51.718;19.446;2023-04-24T08:15:34;7.80;;;4.00;;
70970;SDS011;58632;51.718;19.446;2023-04-24T08:17:59;27.80;;;4.70;;
70970;SDS011;58632;51.718;19.446;2023-04-24T08:20:25;5.00;;;3.40;;
70970;SDS011;58632;51.718;19.446;2023-04-24T08:22:51;4.60;;;3.00;;
70970;SDS011;58632;51.718;19.446;2023-04-24T08:25:19;12.80;;;4.10;;
70970;SDS011;58632;51.718;19.446;2023-04-24T08:27:45;6.80;;;4.10;;
70970;SDS011;58632;51.718;19.446;2023-04-24T08:30:10;7.30;;;4.00;;
70970;SDS011;58632;51.718;19.446;2023-04-24T08:32:36;6.90;;;3.20;;
70970;SDS011;58632;51.718;19.446;2023-04-24T08:35:02;6.70;;;3.70;;
70970;SDS011;58632;51.718;19.446;2023-04-24T08:39:54;6.10;;;3.40;;
70970;SDS011;58632;51.718;19.446;2023-04-24T08:42:20;5.60;;;3.60;;
70970;SDS011;58632;51.718;19.446;2023-04-24T08:44:47;5.50;;;3.70;;
70970;SDS011;58632;51.718;19.446;2023-04-24T08:47:14;6.50;;;3.60;;
70970;SDS011;58632;51.718;19.446;2023-04-24T08:49:40;10.10;;;4.20;;
70970;SDS011;58632;51.718;19.446;2023-04-24T08:52:05;6.10;;;3.70;;
70970;SDS011;58632;51.718;19.446;2023-04-24T08:54:31;30.20;;;5.20;;
70970;SDS011;58632;51.718;19.446;2023-04-24T08:57:00;5.80;;;3.80;;
70970;SDS011;58632;51.718;19.446;2023-04-24T08:59:29;19.20;;;4.50;;
70970;SDS011;58632;51.718;19.446;2023-04-24T09:01:56;5.80;;;3.30;;
70970;SDS011;58632;51.718;19.446;2023-04-24T09:04:22;8.00;;;3.80;;
70970;SDS011;58632;51.718;19.446;2023-04-24T09:06:54;6.80;;;3.70;;
70970;SDS011;58632;51.718;19.446;2023-04-24T09:09:21;5.70;;;3.30;;
70970;SDS011;58632;51.718;19.446;2023-04-24T09:11:49;9.40;;;3.80;;
70970;SDS011;58632;51.718;19.446;2023-04-24T09:14:18;6.20;;;3.70;;
70970;SDS011;58632;51.718;19.446;2023-04-24T09:16:45;6.40;;;3.90;;
70970;SDS011;58632;51.718;19.446;2023-04-24T09:19:11;6.00;;;3.90;;
70970;SDS011;58632;51.718;19.446;2023-04-24T09:24:04;6.70;;;3.30;;
70970;SDS011;58632;51.718;19.446;2023-04-24T09:26:31;4.70;;;3.50;;
70970;SDS011;58632;51.718;19.446;2023-04-24T09:28:58;6.70;;;3.50;;
70970;SDS011;58632;51.718;19.446;2023-04-24T09:31:24;6.70;;;3.70;;
70970;SDS011;58632;51.718;19.446;2023-04-24T09:36:31;5.70;;;3.30;;
70970;SDS011;58632;51.718;19.446;2023-04-24T09:39:01;8.80;;;3.60;;
70970;SDS011;58632;51.718;19.446;2023-04-24T09:41:27;51.70;;;5.40;;
70970;SDS011;58632;51.718;19.446;2023-04-24T09:43:57;7.40;;;3.20;;
70970;SDS011;58632;51.718;19.446;2023-04-24T09:46:36;10.20;;;3.80;;
70970;SDS011;58632;51.718;19.446;2023-04-24T09:49:08;5.90;;;3.60;;
70970;SDS011;58632;51.718;19.446;2023-04-24T09:51:36;9.70;;;4.20;;
70970;SDS011;58632;51.718;19.446;2023-04-24T09:54:03;7.40;;;3.70;;
70970;SDS011;58632;51.718;19.446;2023-04-24T09:56:38;8.50;;;3.80;;
70970;SDS011;58632;51.718;19.446;2023-04-24T09:59:10;6.90;;;3.60;;
70970;SDS011;58632;51.718;19.446;2023-04-24T10:04:03;5.00;;;3.50;;
70970;SDS011;58632;51.718;19.446;2023-04-24T10:06:35;20.20;;;3.80;;
70970;SDS011;58632;51.718;19.446;2023-04-24T10:09:01;7.10;;;3.50;;
70970;SDS011;58632;51.718;19.446;2023-04-24T10:11:26;42.40;;;4.80;;
70970;SDS011;58632;51.718;19.446;2023-04-24T10:13:53;5.80;;;3.20;;
70970;SDS011;58632;51.718;19.446;2023-04-24T10:16:19;4.50;;;2.90;;
70970;SDS011;58632;51.718;19.446;2023-04-24T10:18:47;7.10;;;3.40;;
70970;SDS011;58632;51.718;19.446;2023-04-24T10:21:14;8.40;;;3.10;;
70970;SDS011;58632;51.718;19.446;2023-04-24T10:23:40;5.10;;;3.30;;
70970;SDS011;58632;51.718;19.446;2023-04-24T10:26:08;5.00;;;3.40;;
70970;SDS011;58632;51.718;19.446;2023-04-24T10:28:35;9.60;;;3.90;;
70970;SDS011;58632;51.718;19.446;2023-04-24T10:31:02;11.70;;;3.80;;
70970;SDS011;58632;51.718;19.446;2023-04-24T10:35:54;6.60;;;3.60;;
70970;SDS011;58632;51.718;19.446;2023-04-24T10:38:22;7.00;;;3.80;;
70970;SDS011;58632;51.718;19.446;2023-04-24T10:40:50;8.20;;;3.80;;
70970;SDS011;58632;51.718;19.446;2023-04-24T10:43:18;8.10;;;3.80;;
70970;SDS011;58632;51.718;19.446;2023-04-24T10:46:00;8.50;;;3.80;;
70970;SDS011;58632;51.718;19.446;2023-04-24T10:48:29;8.50;;;4.20;;
70970;SDS011;58632;51.718;19.446;2023-04-24T10:50:56;11.60;;;4.60;;
70970;SDS011;58632;51.718;19.446;2023-04-24T10:53:22;9.30;;;4.60;;
70970;SDS011;58632;51.718;19.446;2023-04-24T10:55:50;9.10;;;4.20;;
70970;SDS011;58632;51.718;19.446;2023-04-24T10:58:23;6.30;;;4.10;;
70970;SDS011;58632;51.718;19.446;2023-04-24T11:00:56;7.40;;;4.20;;
70970;SDS011;58632;51.718;19.446;2023-04-24T11:05:57;6.70;;;4.00;;
70970;SDS011;58632;51.718;19.446;2023-04-24T11:11:08;41.40;;;7.20;;
70970;SDS011;58632;51.718;19.446;2023-04-24T11:16:28;7.80;;;3.80;;
70970;SDS011;58632;51.718;19.446;2023-04-24T11:19:06;6.60;;;3.80;;
70970;SDS011;58632;51.718;19.446;2023-04-24T11:21:55;5.30;;;3.70;;
70970;SDS011;58632;51.718;19.446;2023-04-24T11:24:26;5.00;;;3.80;;
70970;SDS011;58632;51.718;19.446;2023-04-24T11:26:55;5.50;;;3.30;;
70970;SDS011;58632;51.718;19.446;2023-04-24T11:34:54;22.40;;;4.50;;
70970;SDS011;58632;51.718;19.446;2023-04-24T11:37:22;8.10;;;3.50;;
70970;SDS011;58632;51.718;19.446;2023-04-24T11:39:56;6.20;;;3.10;;
70970;SDS011;58632;51.718;19.446;2023-04-24T11:42:23;5.80;;;3.40;;
70970;SDS011;58632;51.718;19.446;2023-04-24T11:44:51;7.40;;;3.50;;
70970;SDS011;58632;51.718;19.446;2023-04-24T11:47:17;11.40;;;3.80;;
70970;SDS011;58632;51.718;19.446;2023-04-24T11:49:43;5.40;;;3.40;;
70970;SDS011;58632;51.718;19.446;2023-04-24T11:52:08;8.80;;;3.70;;
70970;SDS011;58632;51.718;19.446;2023-04-24T11:54:35;6.40;;;4.00;;
70970;SDS011;58632;51.718;19.446;2023-04-24T11:57:03;12.00;;;3.80;;
70970;SDS011;58632;51.718;19.446;2023-04-24T11:59:35;13.40;;;3.90;;
70970;SDS011;58632;51.718;19.446;2023-04-24T12:02:05;5.40;;;3.20;;
70970;SDS011;58632;51.718;19.446;2023-04-24T12:04:38;6.70;;;3.80;;
70970;SDS011;58632;51.718;19.446;2023-04-24T12:07:06;4.90;;;3.60;;
70970;SDS011;58632;51.718;19.446;2023-04-24T12:09:43;5.90;;;3.40;;
70970;SDS011;58632;51.718;19.446;2023-04-24T12:12:09;5.20;;;3.80;;
70970;SDS011;58632;51.718;19.446;2023-04-24T12:14:52;5.40;;;3.50;;
70970;SDS011;58632;51.718;19.446;2023-04-24T12:17:24;6.60;;;3.20;;
70970;SDS011;58632;51.718;19.446;2023-04-24T12:19:56;5.70;;;3.10;;
70970;SDS011;58632;51.718;19.446;2023-04-24T12:22:27;6.20;;;3.20;;
70970;SDS011;58632;51.718;19.446;2023-04-24T12:24:57;6.30;;;3.30;;
70970;SDS011;58632;51.718;19.446;2023-04-24T12:27:33;7.90;;;3.40;;
70970;SDS011;58632;51.718;19.446;2023-04-24T12:30:00;6.50;;;3.80;;
70970;SDS011;58632;51.718;19.446;2023-04-24T12:32:26;6.50;;;3.70;;
70970;SDS011;58632;51.718;19.446;2023-04-24T12:34:52;10.10;;;3.20;;
70970;SDS011;58632;51.718;19.446;2023-04-24T12:37:18;17.40;;;4.00;;
70970;SDS011;58632;51.718;19.446;2023-04-24T12:40:04;5.30;;;3.30;;
70970;SDS011;58632;51.718;19.446;2023-04-24T12:42:42;7.10;;;3.30;;
70970;SDS011;58632;51.718;19.446;2023-04-24T12:45:09;6.70;;;3.50;;
70970;SDS011;58632;51.718;19.446;2023-04-24T12:47:34;8.70;;;3.60;;
70970;SDS011;58632;51.718;19.446;2023-04-24T12:50:01;7.80;;;3.90;;
70970;SDS011;58632;51.718;19.446;2023-04-24T12:52:28;5.70;;;3.80;;
70970;SDS011;58632;51.718;19.446;2023-04-24T12:54:55;5.20;;;3.50;;
70970;SDS011;58632;51.718;19.446;2023-04-24T12:57:23;4.90;;;3.70;;
70970;SDS011;58632;51.718;19.446;2023-04-24T12:59:49;9.00;;;3.50;;
70970;SDS011;58632;51.718;19.446;2023-04-24T13:02:15;6.50;;;3.50;;
70970;SDS011;58632;51.718;19.446;2023-04-24T13:04:46;4.90;;;3.40;;
70970;SDS011;58632;51.718;19.446;2023-04-24T13:07:12;5.50;;;3.60;;
70970;SDS011;58632;51.718;19.446;2023-04-24T13:09:39;5.90;;;3.60;;
70970;SDS011;58632;51.718;19.446;2023-04-24T13:12:06;5.70;;;3.30;;
70970;SDS011;58632;51.718;19.446;2023-04-24T13:14:32;9.90;;;4.60;;
70970;SDS011;58632;51.718;19.446;2023-04-24T13:16:58;5.30;;;3.40;;
70970;SDS011;58632;51.718;19.446;2023-04-24T13:19:24;8.20;;;3.20;;
70970;SDS011;58632;51.718;19.446;2023-04-24T13:21:51;4.80;;;3.10;;
70970;SDS011;58632;51.718;19.446;2023-04-24T13:24:17;3.20;;;2.70;;
70970;SDS011;58632;51.718;19.446;2023-04-24T13:26:43;7.30;;;2.90;;
70970;SDS011;58632;51.718;19.446;2023-04-24T13:29:08;4.60;;;3.30;;
70970;SDS011;58632;51.718;19.446;2023-04-24T13:31:34;6.00;;;3.00;;
70970;SDS011;58632;51.718;19.446;2023-04-24T13:34:00;4.60;;;3.30;;
70970;SDS011;58632;51.718;19.446;2023-04-24T13:36:28;5.40;;;3.30;;
70970;SDS011;58632;51.718;19.446;2023-04-24T13:38:53;6.20;;;3.10;;
70970;SDS011;58632;51.718;19.446;2023-04-24T13:41:19;5.90;;;3.30;;
70970;SDS011;58632;51.718;19.446;2023-04-24T13:43:44;4.90;;;2.70;;
70970;SDS011;58632;51.718;19.446;2023-04-24T13:46:10;4.90;;;3.10;;
70970;SDS011;58632;51.718;19.446;2023-04-24T13:48:35;4.10;;;3.10;;
70970;SDS011;58632;51.718;19.446;2023-04-24T13:51:01;5.00;;;3.10;;
70970;SDS011;58632;51.718;19.446;2023-04-24T13:53:26;7.00;;;3.40;;
70970;SDS011;58632;51.718;19.446;2023-04-24T13:55:52;5.40;;;3.10;;
70970;SDS011;58632;51.718;19.446;2023-04-24T13:58:17;10.60;;;3.70;;
70970;SDS011;58632;51.718;19.446;2023-04-24T14:00:43;8.70;;;3.80;;
70970;SDS011;58632;51.718;19.446;2023-04-24T14:03:08;6.00;;;3.30;;
70970;SDS011;58632;51.718;19.446;2023-04-24T14:05:37;5.40;;;3.30;;
70970;SDS011;58632;51.718;19.446;2023-04-24T14:08:03;4.10;;;2.90;;
70970;SDS011;58632;51.718;19.446;2023-04-24T14:10:28;4.70;;;2.90;;
70970;SDS011;58632;51.718;19.446;2023-04-24T14:12:54;8.00;;;3.30;;
70970;SDS011;58632;51.718;19.446;2023-04-24T14:15:20;9.50;;;4.10;;
70970;SDS011;58632;51.718;19.446;2023-04-24T14:17:46;5.70;;;4.00;;
70970;SDS011;58632;51.718;19.446;2023-04-24T14:20:12;8.30;;;4.30;;
70970;SDS011;58632;51.718;19.446;2023-04-24T14:22:37;8.90;;;4.00;;
70970;SDS011;58632;51.718;19.446;2023-04-24T14:25:04;8.10;;;3.70;;
70970;SDS011;58632;51.718;19.446;2023-04-24T14:27:30;10.10;;;3.80;;
70970;SDS011;58632;51.718;19.446;2023-04-24T14:29:57;4.60;;;3.30;;
70970;SDS011;58632;51.718;19.446;2023-04-24T14:32:25;9.40;;;4.10;;
70970;SDS011;58632;51.718;19.446;2023-04-24T14:34:51;6.50;;;3.50;;
70970;SDS011;58632;51.718;19.446;2023-04-24T14:37:16;10.10;;;7.60;;
70970;SDS011;58632;51.718;19.446;2023-04-24T14:39:42;10.60;;;4.70;;
70970;SDS011;58632;51.718;19.446;2023-04-24T14:42:07;7.90;;;3.80;;
70970;SDS011;58632;51.718;19.446;2023-04-24T14:44:33;5.20;;;3.60;;
70970;SDS011;58632;51.718;19.446;2023-04-24T14:46:58;8.40;;;4.20;;
70970;SDS011;58632;51.718;19.446;2023-04-24T14:49:25;5.80;;;3.90;;
70970;SDS011;58632;51.718;19.446;2023-04-24T14:51:51;7.80;;;3.70;;
70970;SDS011;58632;51.718;19.446;2023-04-24T14:54:16;6.10;;;3.90;;
70970;SDS011;58632;51.718;19.446;2023-04-24T14:56:42;4.90;;;3.50;;
70970;SDS011;58632;51.718;19.446;2023-04-24T14:59:09;8.20;;;4.10;;